SBOSBO PKX / ZBAD
Speedbird OnlineSpeedbird Online PKX / ZBAD

Beijing Daxing International Airport
10:09 19.2°C

Location Beijing, China
Latitude: 39.509945
Longitude: 116.41092
Local Time 10:09 on 24 Apr 2024
UTC +8 hours (Asia/Shanghai)
Currency £1 equals CNY 8.96
METAR ZBAD 240130Z 21003MPS 160V250 CAVOK 17/08 Q1009 NOSIG
TAF TAF ZBAD 232102Z 2400/2424 20004MPS 4000 BR NSC TX26/2407Z TN10/2421Z
Weather As Of 24 Apr 2024 10:09
Description Clear sky
Wind 14 km/h from South (199°)
Cloud Cover 0%
Precipitation Rain: none, Snow: none
Sunrise 05:24
Sunset 19:00
NOTAM 23 active NOTAM
Rotations During the last 90 days there were
45 flights from LHR
45 flights to LHR
Lounges International Sky Pearl VIP Lounge, Level 4, International Departure
BCS International Premium Lounge, Southernmost point of the E Pier, nearby the terminal garden
Web Wikipedia
Codes IATA: PKX
ICAO: ZBAD
Altitude 30 Meter / 98 Feet
Distance 8,164 KM / 5,073 Miles
from London.
Runways
RunwayLength (m)Surface
01L3400Concrete
11L3800Concrete
17L3800Concrete
17R3800Concrete
19R3400Concrete
29R3800Concrete
35L3800Concrete
35R3800Concrete
Radio
TypeDescriptionFrequency
AP01126.1
AP02119
AP03126.5
APN01122.25
APN02122.7
ATIS-IATIS arrival127.225
ATIS-OATIS departure128.4
GND01121.975
GND02121.625
TWR01118.825
TWR02118.375
Live ATC



Support Speedbird Online

© 2017-2024 Speedbird Online